CCZ3 weather

Clarenville Airport
Clarenville, Newfoundland and Labrador, Canada

Public forecast

Using degrees Celsius for public forecast. Weather courtesy of forecast.io.

Closest aviation weather report (METAR) to Clarenville Airport

Closest report is Gander International Airport, 47.3 nm (87.6 km) NNW. Retrieved 2020/04/05 09:00 UTC (2 minutes ago):

CYQX 050900Z 32006KT 8SM -SHSN SCT058 SCT090 BKN130 M05/M06 A2994 RMK SC3AC1AC3 CVCTV CLD EMBD SLP151

Closest aviation forecast (TAF) to Clarenville Airport

Closest forecast is Gander International Airport, 47.3 nm (87.6 km) NNW. Retrieved 2020/04/05 06:42 UTC (2 hours ago):

TAF TAF CYQX 050538Z 0506/0606 34005KT P6SM FEW008 BKN020 OVC070 TEMPO 0506/0510 3SM -SN OVC008 PROB40 0506/0510 3/4SM -FZDZ BR OVC002 FM051000 33008KT P6SM -SHSN SCT008 OVC020 PROB30 0510/0514 3SM -FZDZ BR OVC008 FM051800 33006KT P6SM BKN025 TEMPO 0518/0603 BKN020 BECMG 0520/0522 14006KT FM060300 18010KT P6SM BKN015 BECMG 0604/0606 22010KT RMK NXT FCST BY 051200Z